createdAt,value
2022-08-12T00:01:06.616Z,1.40
2022-08-12T00:03:53.055Z,1.33
2022-08-12T00:06:40.605Z,1.17
2022-08-12T00:09:27.427Z,1.25
2022-08-12T00:12:13.812Z,0.95
2022-08-12T00:15:02.220Z,1.37
2022-08-12T00:17:49.225Z,1.12
2022-08-12T00:20:35.540Z,0.88
2022-08-12T00:23:23.577Z,1.20
2022-08-12T00:26:23.208Z,0.82
2022-08-12T00:29:12.939Z,1.12
2022-08-12T00:32:00.441Z,1.17
2022-08-12T00:34:51.646Z,1.00
2022-08-12T00:37:39.948Z,1.02
2022-08-12T00:40:29.080Z,1.37
2022-08-12T00:42:58.115Z,1.15
2022-08-12T00:45:26.620Z,1.30
2022-08-12T00:47:54.249Z,1.20
2022-08-12T00:50:22.558Z,1.30
2022-08-12T00:52:51.963Z,0.90
2022-08-12T00:55:19.969Z,1.20
2022-08-12T00:57:50.093Z,1.15
2022-08-12T01:00:23.104Z,0.93
2022-08-12T01:02:53.546Z,1.35
2022-08-12T01:05:41.621Z,1.33
2022-08-12T01:08:28.092Z,1.20
2022-08-12T01:11:14.974Z,0.95
2022-08-12T01:13:52.641Z,0.80
2022-08-12T01:16:24.243Z,1.20
2022-08-12T01:18:55.056Z,1.33
2022-08-12T01:21:41.909Z,1.30
2022-08-12T01:24:34.090Z,1.10
2022-08-12T01:27:03.380Z,1.00
2022-08-12T01:29:39.012Z,1.08
2022-08-12T01:32:08.905Z,1.00
2022-08-12T01:34:38.589Z,1.08
2022-08-12T01:37:08.796Z,1.40
2022-08-12T01:40:35.438Z,1.52
2022-08-12T01:42:37.995Z,1.15
2022-08-12T01:47:47.184Z,1.08
2022-08-12T01:50:22.151Z,1.08
2022-08-12T01:53:06.548Z,1.20
2022-08-12T01:55:37.207Z,1.08
2022-08-12T01:58:20.361Z,1.20
2022-08-12T02:00:55.278Z,1.15
2022-08-12T02:04:13.653Z,0.93
2022-08-12T02:07:20.917Z,0.93
2022-08-12T02:10:50.443Z,1.15
2022-08-12T02:13:33.175Z,0.90
2022-08-12T02:16:36.328Z,1.10
2022-08-12T02:19:40.429Z,1.10
2022-08-12T02:22:20.524Z,1.05
2022-08-12T02:24:50.276Z,1.20
2022-08-12T02:27:19.582Z,1.40
2022-08-12T02:29:48.262Z,0.98
2022-08-12T02:32:16.329Z,1.17
2022-08-12T02:34:44.729Z,1.40
2022-08-12T02:37:15.582Z,1.60
2022-08-12T02:39:49.108Z,1.08
2022-08-12T02:42:19.398Z,1.17
2022-08-12T02:44:51.806Z,1.50
2022-08-12T02:48:00.148Z,1.45
2022-08-12T02:50:11.019Z,1.20
2022-08-12T02:52:38.986Z,1.40
2022-08-12T02:55:34.289Z,1.02
2022-08-12T02:58:12.353Z,0.93
2022-08-12T03:00:43.764Z,1.27
2022-08-12T03:03:13.793Z,1.40
2022-08-12T03:05:49.124Z,1.55
2022-08-12T03:08:31.837Z,1.25
2022-08-12T03:11:06.187Z,0.98
2022-08-12T03:13:42.496Z,0.98
2022-08-12T03:16:10.634Z,1.58
2022-08-12T03:18:45.558Z,0.82
2022-08-12T03:21:16.869Z,1.00
2022-08-12T03:23:46.602Z,1.15
2022-08-12T03:26:14.820Z,1.25
2022-08-12T03:28:51.947Z,1.50
2022-08-12T03:31:22.994Z,1.35
2022-08-12T03:34:01.503Z,1.48
2022-08-12T03:36:36.060Z,0.93
2022-08-12T03:39:18.955Z,1.50
2022-08-12T03:42:06.144Z,1.58
2022-08-12T03:45:31.943Z,1.37
2022-08-12T03:48:25.762Z,1.60
2022-08-12T03:51:13.361Z,1.98
2022-08-12T03:54:00.425Z,1.73
2022-08-12T03:56:46.649Z,1.12
2022-08-12T03:59:33.159Z,1.30
2022-08-12T04:02:00.742Z,1.25
2022-08-12T04:04:34.258Z,1.67
2022-08-12T04:07:10.664Z,1.60
2022-08-12T04:09:40.832Z,1.40
2022-08-12T04:12:32.399Z,1.40
2022-08-12T04:15:02.206Z,1.58
2022-08-12T04:17:31.574Z,1.83
2022-08-12T04:19:59.628Z,1.40
2022-08-12T04:22:29.844Z,2.00
2022-08-12T04:25:01.188Z,2.00
2022-08-12T04:27:31.672Z,1.90
2022-08-12T04:30:30.946Z,1.92
2022-08-12T04:32:50.149Z,1.70
2022-08-12T04:35:18.402Z,1.17
2022-08-12T04:37:58.930Z,0.98
2022-08-12T04:40:31.072Z,1.70
2022-08-12T04:43:01.071Z,1.70
2022-08-12T04:45:34.619Z,1.92
2022-08-12T04:48:02.780Z,1.58
2022-08-12T04:50:36.116Z,1.60
2022-08-12T04:53:06.272Z,1.70
2022-08-12T04:55:34.891Z,1.67
2022-08-12T04:58:02.383Z,1.67
2022-08-12T05:00:29.882Z,1.45
2022-08-12T05:02:57.775Z,1.50
2022-08-12T05:05:25.407Z,1.33
2022-08-12T05:07:54.699Z,1.60
2022-08-12T05:10:33.645Z,1.50
2022-08-12T05:13:09.846Z,1.55
2022-08-12T05:16:02.423Z,1.52
2022-08-12T05:18:29.076Z,1.40
2022-08-12T05:20:59.133Z,1.40
2022-08-12T05:23:27.309Z,1.55
2022-08-12T05:25:58.238Z,1.50
2022-08-12T05:28:27.260Z,1.90
2022-08-12T05:30:56.182Z,1.70
2022-08-12T05:33:33.274Z,1.50
2022-08-12T05:36:01.074Z,1.73
2022-08-12T05:38:47.138Z,1.58
2022-08-12T05:41:20.939Z,1.58
2022-08-12T05:43:59.961Z,1.60
2022-08-12T05:46:29.441Z,1.80
2022-08-12T05:48:59.024Z,2.10
2022-08-12T05:51:39.699Z,1.60
2022-08-12T05:54:11.018Z,1.65
2022-08-12T05:56:40.775Z,1.90
2022-08-12T05:59:12.193Z,2.05
2022-08-12T06:02:09.138Z,2.03
2022-08-12T06:04:30.173Z,1.70
2022-08-12T06:06:57.712Z,1.85
2022-08-12T06:09:27.679Z,1.67
2022-08-12T06:12:05.593Z,1.98
2022-08-12T06:14:39.038Z,2.20
2022-08-12T06:17:10.342Z,2.42
2022-08-12T06:20:25.895Z,2.08
2022-08-12T06:22:26.913Z,2.10
2022-08-12T06:24:54.465Z,2.33
2022-08-12T06:27:21.937Z,2.70
2022-08-12T06:30:09.662Z,2.15
2022-08-12T06:32:42.848Z,2.10
2022-08-12T06:35:48.819Z,2.15
2022-08-12T06:38:19.305Z,2.33
2022-08-12T06:41:07.522Z,2.47
2022-08-12T06:44:04.491Z,2.28
2022-08-12T06:46:24.113Z,2.30
2022-08-12T06:48:56.909Z,1.80
2022-08-12T06:51:26.835Z,1.87
2022-08-12T06:53:55.947Z,1.90
2022-08-12T06:56:39.769Z,2.17
2022-08-12T06:59:14.177Z,2.70
2022-08-12T07:01:51.034Z,1.95
2022-08-12T07:04:37.322Z,2.35
2022-08-12T07:07:09.918Z,2.15
2022-08-12T07:10:06.511Z,2.67
2022-08-12T07:12:28.242Z,2.62
2022-08-12T07:14:57.864Z,2.15
2022-08-12T07:17:26.173Z,2.12
2022-08-12T07:19:55.500Z,2.60
2022-08-12T07:22:25.937Z,2.33
2022-08-12T07:25:13.366Z,2.00
2022-08-12T07:27:42.745Z,2.37
2022-08-12T07:30:11.054Z,2.58
2022-08-12T07:32:38.678Z,2.12
2022-08-12T07:35:06.940Z,2.28
2022-08-12T07:37:40.628Z,1.92
2022-08-12T07:40:11.807Z,2.37
2022-08-12T07:42:41.087Z,2.30
2022-08-12T07:45:09.513Z,2.22
2022-08-12T07:47:37.926Z,2.22
2022-08-12T07:50:09.295Z,2.15
2022-08-12T07:52:38.698Z,2.40
2022-08-12T07:55:07.085Z,2.17
2022-08-12T07:57:35.756Z,2.30
2022-08-12T08:00:06.180Z,2.97
2022-08-12T08:02:37.078Z,2.60
2022-08-12T08:05:06.376Z,2.30
2022-08-12T08:07:34.012Z,2.40
2022-08-12T08:10:03.981Z,2.08
2022-08-12T08:12:50.074Z,2.55
2022-08-12T08:15:17.678Z,2.60
2022-08-12T08:18:02.636Z,2.70
2022-08-12T08:20:41.356Z,2.12
2022-08-12T08:23:12.481Z,2.60
2022-08-12T08:25:41.413Z,2.72
2022-08-12T08:28:13.499Z,2.65
2022-08-12T08:30:43.937Z,2.70
2022-08-12T08:33:22.821Z,2.40
2022-08-12T08:36:00.831Z,2.12
2022-08-12T08:38:32.737Z,2.62
2022-08-12T08:42:15.750Z,2.37
2022-08-12T08:44:12.311Z,2.47
2022-08-12T08:46:40.790Z,2.55
2022-08-12T08:49:08.600Z,2.47
2022-08-12T08:51:37.099Z,2.65
2022-08-12T08:54:06.932Z,2.80
2022-08-12T08:56:42.889Z,2.92
2022-08-12T08:59:12.104Z,2.72
2022-08-12T09:01:40.908Z,3.22
2022-08-12T09:05:08.784Z,1.92
2022-08-12T09:07:18.075Z,2.50
2022-08-12T09:10:03.733Z,2.97
2022-08-12T09:15:42.499Z,2.62
2022-08-12T09:21:12.332Z,2.50
2022-08-12T09:24:00.418Z,2.67
2022-08-12T09:26:31.184Z,3.15
2022-08-12T09:29:00.489Z,2.95
2022-08-12T09:32:07.437Z,3.17
2022-08-12T09:34:28.084Z,2.90
2022-08-12T09:37:18.747Z,2.90
2022-08-12T09:40:03.264Z,2.65
2022-08-12T09:46:06.942Z,2.55
2022-08-12T09:48:35.183Z,2.80
2022-08-12T09:51:16.539Z,2.00
2022-08-12T09:53:45.645Z,2.53
2022-08-12T09:56:58.097Z,2.33
2022-08-12T09:59:10.021Z,2.05
2022-08-12T10:02:42.136Z,2.10
2022-08-12T10:04:30.244Z,2.65
2022-08-12T10:06:58.142Z,2.78
2022-08-12T10:09:28.856Z,1.80
2022-08-12T10:12:53.486Z,2.10
2022-08-12T10:16:00.885Z,2.30
2022-08-12T10:18:08.152Z,2.10
2022-08-12T10:20:35.756Z,1.90
2022-08-12T10:23:03.615Z,2.15
2022-08-12T10:26:36.197Z,2.40
2022-08-12T10:29:02.726Z,2.40
2022-08-12T10:32:19.781Z,2.25
2022-08-12T10:34:26.483Z,2.37
2022-08-12T10:36:58.759Z,2.17
2022-08-12T10:40:07.071Z,2.45
2022-08-12T10:42:46.535Z,2.35
2022-08-12T10:45:18.037Z,2.25
2022-08-12T10:48:19.007Z,1.98
2022-08-12T10:51:01.837Z,2.28
2022-08-12T10:53:44.007Z,1.98
2022-08-12T10:56:17.828Z,2.58
2022-08-12T10:58:47.236Z,2.03
2022-08-12T11:01:49.880Z,2.33
2022-08-12T11:04:24.119Z,2.03
2022-08-12T11:07:06.727Z,3.08
2022-08-12T11:09:59.847Z,2.62
2022-08-12T11:12:55.792Z,2.60
2022-08-12T11:15:33.249Z,1.90
2022-08-12T11:18:12.299Z,2.62
2022-08-12T11:20:48.254Z,2.22
2022-08-12T11:23:24.970Z,2.37
2022-08-12T11:26:06.704Z,2.17
2022-08-12T11:28:37.010Z,1.80
2022-08-12T11:31:09.732Z,2.45
2022-08-12T11:34:06.191Z,1.95
2022-08-12T11:36:26.077Z,1.92
2022-08-12T11:38:55.174Z,2.40
2022-08-12T11:41:31.584Z,1.95
2022-08-12T11:44:24.075Z,1.95
2022-08-12T11:46:51.356Z,2.05
2022-08-12T11:49:31.719Z,1.60
2022-08-12T11:52:01.864Z,1.85
2022-08-12T11:54:30.495Z,2.00
2022-08-12T11:57:01.949Z,1.45
2022-08-12T12:02:21.489Z,2.12
2022-08-12T12:04:52.888Z,2.00
2022-08-12T12:07:33.984Z,1.48
2022-08-12T12:10:13.680Z,1.60
2022-08-12T12:12:49.736Z,1.70
2022-08-12T12:15:24.786Z,1.87
2022-08-12T12:17:55.770Z,1.52
2022-08-12T12:20:25.985Z,2.00
2022-08-12T12:22:55.367Z,2.33
2022-08-12T12:26:06.482Z,1.92
2022-08-12T12:28:36.931Z,1.95
2022-08-12T12:30:58.523Z,2.08
2022-08-12T12:33:57.534Z,1.62
2022-08-12T12:36:22.141Z,2.35
2022-08-12T12:38:52.173Z,2.28
2022-08-12T12:41:19.668Z,1.80
2022-08-12T12:43:56.506Z,1.83
2022-08-12T12:46:32.401Z,4.62
2022-08-12T12:48:59.921Z,1.80
2022-08-12T12:52:06.766Z,4.37
2022-08-12T12:54:18.655Z,4.72
2022-08-12T12:56:49.981Z,2.03
2022-08-12T12:59:55.078Z,2.10
2022-08-12T13:02:08.624Z,1.92
2022-08-12T13:04:37.879Z,2.00
2022-08-12T13:07:06.711Z,1.67
2022-08-12T13:09:36.309Z,1.60
2022-08-12T13:12:08.988Z,1.58
2022-08-12T13:14:39.691Z,2.10
2022-08-12T13:17:14.552Z,1.65
2022-08-12T13:22:20.488Z,1.62
2022-08-12T13:24:54.707Z,1.60
2022-08-12T13:27:35.457Z,1.58
2022-08-12T13:30:11.030Z,1.52
2022-08-12T13:32:42.057Z,2.15
2022-08-12T13:35:20.188Z,1.70
2022-08-12T13:37:59.379Z,1.83
2022-08-12T13:40:33.195Z,1.90
2022-08-12T13:43:02.409Z,1.90
2022-08-12T13:45:34.843Z,1.67
2022-08-12T13:48:04.582Z,1.80
2022-08-12T13:50:40.295Z,1.77
2022-08-12T13:53:24.515Z,2.17
2022-08-12T13:56:01.665Z,2.10
2022-08-12T13:58:32.877Z,2.00
2022-08-12T14:01:06.338Z,1.80
2022-08-12T14:03:49.931Z,2.12
2022-08-12T14:06:19.013Z,1.95
2022-08-12T14:08:49.802Z,1.85
2022-08-12T14:11:19.150Z,1.92
2022-08-12T14:14:06.197Z,2.10
2022-08-12T14:16:48.284Z,2.05
2022-08-12T14:19:22.862Z,1.92
2022-08-12T14:22:00.804Z,1.65
2022-08-12T14:24:40.571Z,1.90
2022-08-12T14:27:12.453Z,2.37
2022-08-12T14:30:04.512Z,1.80
2022-08-12T14:32:36.685Z,1.75
2022-08-12T14:35:09.521Z,1.87
2022-08-12T14:37:56.933Z,1.70
2022-08-12T14:40:28.615Z,1.92
2022-08-12T14:42:58.277Z,2.00
2022-08-12T14:45:45.400Z,1.80
2022-08-12T14:48:18.532Z,1.62
2022-08-12T14:51:02.583Z,1.62
2022-08-12T14:54:52.899Z,1.73
2022-08-12T14:59:57.475Z,1.70
2022-08-12T15:02:20.913Z,1.70
2022-08-12T15:05:03.614Z,1.60
2022-08-12T15:07:33.787Z,1.87
2022-08-12T15:10:25.395Z,1.77
2022-08-12T15:13:07.261Z,1.73
2022-08-12T15:15:43.785Z,1.50
2022-08-12T15:18:21.239Z,1.75
2022-08-12T15:20:54.574Z,1.70
2022-08-12T15:23:24.478Z,1.45
2022-08-12T15:26:02.498Z,1.60
2022-08-12T15:28:35.510Z,1.77
2022-08-12T15:31:21.466Z,1.55
2022-08-12T15:33:53.372Z,1.60
2022-08-12T15:36:53.883Z,1.65
2022-08-12T15:39:16.963Z,1.67
2022-08-12T15:41:49.567Z,1.60
2022-08-12T15:44:37.965Z,1.50
2022-08-12T15:47:07.119Z,1.83
2022-08-12T15:49:54.214Z,1.90
2022-08-12T15:52:28.119Z,1.92
2022-08-12T15:55:05.076Z,1.67
2022-08-12T15:57:41.548Z,1.98
2022-08-12T16:00:31.734Z,2.05
2022-08-12T16:02:59.615Z,2.10
2022-08-12T16:06:13.249Z,1.70
2022-08-12T16:08:27.090Z,1.77
2022-08-12T16:10:56.887Z,2.05
2022-08-12T16:13:34.407Z,1.58
2022-08-12T16:16:22.922Z,1.60
2022-08-12T16:18:59.527Z,1.62
2022-08-12T16:21:51.501Z,1.98
2022-08-12T16:24:18.789Z,1.95
2022-08-12T16:26:51.552Z,1.92
2022-08-12T16:29:53.504Z,2.30
2022-08-12T16:32:21.118Z,2.00
2022-08-12T16:34:55.436Z,1.77
2022-08-12T16:37:32.518Z,2.08
2022-08-12T16:40:06.288Z,1.87
2022-08-12T16:42:54.062Z,2.03
2022-08-12T16:46:04.239Z,2.25
2022-08-12T16:48:34.145Z,1.92
2022-08-12T16:51:05.916Z,1.77
2022-08-12T16:53:43.961Z,2.45
2022-08-12T16:56:15.363Z,2.17
2022-08-12T16:58:43.286Z,1.70
2022-08-12T17:01:14.594Z,1.70
2022-08-12T17:03:51.800Z,1.80
2022-08-12T17:06:27.679Z,1.90
2022-08-12T17:09:03.484Z,1.80
2022-08-12T17:11:39.385Z,1.67
2022-08-12T17:14:11.775Z,2.10
2022-08-12T17:16:40.395Z,1.90
2022-08-12T17:19:08.914Z,1.70
2022-08-12T17:21:40.683Z,1.80
2022-08-12T17:24:22.365Z,1.90
2022-08-12T17:26:57.542Z,1.70
2022-08-12T17:30:01.283Z,1.77
2022-08-12T17:32:14.438Z,1.75
2022-08-12T17:35:01.244Z,2.00
2022-08-12T17:37:29.068Z,1.80
2022-08-12T17:40:15.777Z,1.77
2022-08-12T17:42:47.691Z,1.80
2022-08-12T17:45:19.895Z,1.65
2022-08-12T17:48:04.501Z,1.87
2022-08-12T17:50:45.288Z,1.90
2022-08-12T17:53:18.990Z,2.12
2022-08-12T17:55:50.260Z,2.00
2022-08-12T17:58:35.798Z,2.15
2022-08-12T18:01:11.245Z,1.70
2022-08-12T18:04:04.304Z,2.37
2022-08-12T18:06:28.571Z,1.90
2022-08-12T18:08:59.918Z,2.00
2022-08-12T18:12:12.904Z,2.10
2022-08-12T18:14:41.650Z,2.12
2022-08-12T18:17:16.267Z,1.90
2022-08-12T18:20:06.994Z,3.05
2022-08-12T18:22:33.193Z,2.00
2022-08-12T18:25:04.764Z,1.70
2022-08-12T18:27:44.325Z,2.00
2022-08-12T18:30:20.912Z,1.90
2022-08-12T18:33:04.975Z,2.03
2022-08-12T18:35:47.791Z,1.85
2022-08-12T18:38:22.567Z,1.80
2022-08-12T18:41:22.013Z,1.85
2022-08-12T18:44:00.056Z,2.20
2022-08-12T18:46:47.089Z,2.12
2022-08-12T18:49:24.836Z,2.17
2022-08-12T18:52:03.796Z,2.30
2022-08-12T18:54:48.792Z,2.35
2022-08-12T18:57:45.943Z,1.90
2022-08-12T19:00:21.409Z,1.98
2022-08-12T19:02:51.981Z,2.35
2022-08-12T19:05:45.830Z,1.95
2022-08-12T19:08:17.833Z,2.00
2022-08-12T19:10:48.061Z,2.03
2022-08-12T19:13:39.603Z,2.20
2022-08-12T19:16:12.474Z,2.20
2022-08-12T19:18:44.555Z,2.40
2022-08-12T19:21:16.954Z,2.00
2022-08-12T19:24:08.696Z,2.10
2022-08-12T19:26:37.399Z,2.30
2022-08-12T19:29:07.635Z,2.53
2022-08-12T19:31:55.788Z,2.55
2022-08-12T19:36:08.086Z,2.60
2022-08-12T19:38:06.721Z,2.50
2022-08-12T19:40:34.596Z,2.45
2022-08-12T19:43:20.943Z,2.40
2022-08-12T19:45:56.301Z,2.20
2022-08-12T19:48:30.357Z,2.58
2022-08-12T19:50:59.429Z,2.17
2022-08-12T19:53:56.618Z,2.22
2022-08-12T19:56:25.201Z,2.00
2022-08-12T19:58:54.272Z,2.10
2022-08-12T20:01:21.788Z,2.37
2022-08-12T20:03:59.102Z,2.10
2022-08-12T20:06:33.890Z,2.60
2022-08-12T20:12:11.726Z,2.33
2022-08-12T20:14:19.851Z,2.42
2022-08-12T20:17:01.813Z,2.62
2022-08-12T20:20:01.157Z,2.58
2022-08-12T20:22:24.678Z,2.12
2022-08-12T20:25:07.220Z,2.20
2022-08-12T20:28:04.034Z,2.10
2022-08-12T20:30:37.864Z,2.58
2022-08-12T20:33:17.347Z,2.22
2022-08-12T20:36:14.130Z,2.40
2022-08-12T20:38:39.602Z,2.65
2022-08-12T20:41:17.375Z,2.55
2022-08-12T20:43:49.451Z,1.95
2022-08-12T20:46:21.282Z,2.12
2022-08-12T20:48:55.085Z,2.30
2022-08-12T20:51:27.655Z,2.25
2022-08-12T20:53:59.077Z,2.10
2022-08-12T20:56:33.033Z,2.22
2022-08-12T20:59:14.837Z,2.50
2022-08-12T21:01:48.905Z,2.50
2022-08-12T21:04:36.508Z,2.40
2022-08-12T21:07:10.351Z,2.10
2022-08-12T21:09:44.352Z,1.60
2022-08-12T21:12:37.440Z,2.25
2022-08-12T21:15:22.998Z,2.10
2022-08-12T21:18:09.838Z,2.30
2022-08-12T21:20:44.359Z,2.40
2022-08-12T21:23:13.814Z,1.95
2022-08-12T21:25:45.014Z,2.28
2022-08-12T21:28:14.807Z,2.00
2022-08-12T21:31:10.962Z,1.70
2022-08-12T21:33:32.061Z,2.35
2022-08-12T21:36:32.062Z,2.00
2022-08-12T21:39:20.560Z,2.10
2022-08-12T21:41:51.915Z,1.90
2022-08-12T21:44:24.672Z,1.95
2022-08-12T21:47:21.348Z,1.95
2022-08-12T21:50:06.443Z,2.17
2022-08-12T21:52:36.900Z,1.80
2022-08-12T21:55:08.578Z,2.53
2022-08-12T21:57:54.437Z,2.10
2022-08-12T22:00:34.358Z,2.65
2022-08-12T22:04:01.723Z,2.42
2022-08-12T22:06:26.454Z,2.40
2022-08-12T22:09:03.893Z,2.12
2022-08-12T22:11:42.052Z,2.50
2022-08-12T22:14:21.453Z,2.42
2022-08-12T22:16:52.316Z,2.30
2022-08-12T22:19:21.514Z,2.10
2022-08-12T22:21:53.537Z,2.12
2022-08-12T22:24:26.765Z,2.33
2022-08-12T22:27:18.002Z,2.22
2022-08-12T22:30:16.551Z,2.00
2022-08-12T22:32:50.787Z,2.10
2022-08-12T22:35:55.551Z,2.03
2022-08-12T22:38:21.131Z,2.20
2022-08-12T22:40:50.613Z,1.77
2022-08-12T22:43:59.134Z,2.10
2022-08-12T22:46:53.104Z,2.20
2022-08-12T22:49:36.782Z,2.10
2022-08-12T22:52:23.211Z,2.12
2022-08-12T22:55:03.733Z,2.45
2022-08-12T22:57:53.949Z,2.28
2022-08-12T23:00:24.539Z,1.92
2022-08-12T23:02:59.375Z,1.95
2022-08-12T23:05:57.611Z,2.60
2022-08-12T23:08:22.311Z,2.47
2022-08-12T23:10:50.419Z,3.00
2022-08-12T23:13:43.101Z,3.55
2022-08-12T23:16:18.326Z,3.22
2022-08-12T23:19:01.643Z,3.58
2022-08-12T23:22:06.569Z,3.55
2022-08-12T23:24:35.131Z,2.58
2022-08-12T23:27:22.455Z,2.60
2022-08-12T23:30:05.866Z,2.60
2022-08-12T23:32:37.961Z,2.75
2022-08-12T23:35:07.198Z,2.50
2022-08-12T23:37:46.511Z,2.60
2022-08-12T23:40:17.716Z,2.20
2022-08-12T23:42:45.877Z,2.60
2022-08-12T23:45:20.208Z,2.45
2022-08-12T23:47:58.980Z,2.50
2022-08-12T23:50:34.471Z,2.35
2022-08-12T23:53:17.014Z,2.40
2022-08-12T23:55:50.094Z,2.10
2022-08-12T23:58:26.121Z,2.22
